Time;durP1;ratioP1;P1;durP2;ratioP2;P2;SDS_P1;SDS_P2;PMS_P1;PMS_P2;Temp;Humidity;BMP_temperature;BMP_pressure;BME280_temperature;BME280_humidity;BME280_pressure;Samples;Min_cycle;Max_cycle;Signal;HPM_P1;HPM_P2
2024/02/24 00:03:47;;;;;;;0.60;0.60;;;6.50;94.90;;;;;;10435655;28;20699;-77
2024/02/24 00:08:50;;;;;;;0.50;0.50;;;6.60;94.50;;;;;;10423805;28;20213;-77
2024/02/24 00:13:54;;;;;;;0.40;0.40;;;6.80;94.20;;;;;;10439069;28;20213;-77
2024/02/24 00:18:59;;;;;;;0.50;0.50;;;6.90;94.10;;;;;;10422738;28;20194;-77
2024/02/24 00:24:01;;;;;;;0.60;0.60;;;7.00;93.90;;;;;;10416884;28;20218;-77
2024/02/24 00:29:05;;;;;;;0.50;0.50;;;7.10;93.90;;;;;;10420117;28;20225;-78
2024/02/24 00:34:07;;;;;;;0.40;0.40;;;7.20;94.20;;;;;;10421235;28;20644;-77
2024/02/24 00:39:10;;;;;;;0.50;0.50;;;7.30;94.30;;;;;;10419279;28;20198;-77
2024/02/24 00:44:14;;;;;;;0.40;0.40;;;7.30;94.40;;;;;;10414180;28;20232;-77
2024/02/24 00:49:16;;;;;;;0.40;0.40;;;7.30;94.50;;;;;;10419083;28;20226;-77
2024/02/24 00:54:19;;;;;;;0.40;0.40;;;7.30;94.30;;;;;;10422628;28;20307;-77
2024/02/24 00:59:23;;;;;;;0.50;0.50;;;7.20;94.30;;;;;;10434704;28;20209;-77
2024/02/24 01:04:25;;;;;;;0.40;0.40;;;7.10;94.40;;;;;;10426236;28;20699;-78
2024/02/24 01:09:28;;;;;;;0.50;0.50;;;7.10;94.30;;;;;;10431764;28;20691;-77
2024/02/24 01:14:32;;;;;;;0.50;0.50;;;7.10;94.20;;;;;;10440521;28;20221;-76
2024/02/24 01:19:34;;;;;;;0.50;0.50;;;7.00;94.20;;;;;;10433384;28;20198;-76
2024/02/24 01:24:37;;;;;;;0.40;0.40;;;6.90;94.10;;;;;;10440686;28;20222;-77
2024/02/24 01:29:41;;;;;;;0.50;0.50;;;6.80;94.40;;;;;;10427771;28;20217;-77
2024/02/24 01:34:43;;;;;;;0.50;0.50;;;6.80;94.40;;;;;;10438665;28;20230;-77
2024/02/24 01:39:45;;;;;;;0.50;0.50;;;6.70;94.30;;;;;;10430900;28;20193;-77
2024/02/24 01:44:49;;;;;;;0.50;0.50;;;6.70;94.50;;;;;;10433708;28;20213;-77
2024/02/24 01:49:53;;;;;;;0.50;0.50;;;6.70;94.50;;;;;;10435977;28;20209;-77
2024/02/24 01:54:59;;;;;;;0.50;0.50;;;6.80;94.70;;;;;;10442809;28;20574;-77
2024/02/24 02:00:03;;;;;;;0.50;0.50;;;6.90;94.80;;;;;;10421243;28;20224;-77
2024/02/24 02:05:08;;;;;;;0.50;0.50;;;7.10;94.70;;;;;;10441621;28;20282;-77
2024/02/24 02:10:10;;;;;;;0.50;0.50;;;7.20;94.50;;;;;;10434575;28;21005;-77
2024/02/24 02:15:15;;;;;;;0.50;0.50;;;7.30;94.40;;;;;;10440857;28;20678;-77
2024/02/24 02:20:17;;;;;;;0.50;0.50;;;7.40;94.50;;;;;;10433182;28;20196;-77
2024/02/24 02:25:21;;;;;;;0.50;0.50;;;7.50;94.80;;;;;;10437492;28;20262;-77
2024/02/24 02:30:23;;;;;;;0.60;0.60;;;7.50;95.60;;;;;;10432190;28;20629;-77
2024/02/24 02:35:26;;;;;;;0.60;0.60;;;7.40;95.80;;;;;;10440094;28;20225;-77
2024/02/24 02:40:29;;;;;;;0.60;0.60;;;7.40;95.90;;;;;;10432120;28;20198;-77
2024/02/24 02:45:32;;;;;;;0.50;0.50;;;7.30;96.00;;;;;;10440309;28;20275;-77
2024/02/24 02:50:35;;;;;;;0.50;0.50;;;7.30;96.30;;;;;;10414021;28;20218;-77
2024/02/24 02:55:38;;;;;;;0.50;0.50;;;7.30;96.40;;;;;;10439780;28;20241;-77
2024/02/24 03:00:41;;;;;;;0.63;0.63;;;7.30;96.40;;;;;;10429816;28;20555;-77
2024/02/24 03:05:43;;;;;;;0.60;0.60;;;7.30;96.60;;;;;;10446947;28;20633;-78
2024/02/24 03:10:47;;;;;;;0.67;0.67;;;7.20;96.40;;;;;;10437833;28;20230;-77
2024/02/24 03:15:49;;;;;;;0.50;0.50;;;7.20;96.50;;;;;;10445286;28;20652;-77
2024/02/24 03:20:51;;;;;;;0.50;0.50;;;7.20;96.60;;;;;;10442208;28;20185;-76
2024/02/24 03:25:55;;;;;;;0.50;0.50;;;7.30;96.90;;;;;;10442628;28;20688;-77
2024/02/24 03:30:57;;;;;;;0.50;0.50;;;7.30;96.90;;;;;;10440492;28;20213;-77
2024/02/24 03:36:00;;;;;;;0.50;0.50;;;7.30;97.00;;;;;;10446059;28;20205;-77
2024/02/24 03:41:04;;;;;;;0.70;0.70;;;7.30;97.10;;;;;;10440264;28;20208;-77
2024/02/24 03:46:07;;;;;;;0.50;0.50;;;7.30;97.10;;;;;;10451944;28;20560;-77
2024/02/24 03:51:09;;;;;;;0.60;0.60;;;7.30;96.90;;;;;;10438172;28;20636;-77
2024/02/24 03:56:13;;;;;;;0.50;0.50;;;7.30;96.70;;;;;;10430675;28;20625;-77
2024/02/24 04:01:16;;;;;;;0.60;0.60;;;7.20;96.60;;;;;;10433483;28;20674;-77
2024/02/24 04:06:18;;;;;;;0.90;0.90;;;7.20;96.50;;;;;;10443580;28;20216;-77
2024/02/24 04:11:22;;;;;;;0.77;0.77;;;7.10;96.40;;;;;;10437276;28;20225;-77
2024/02/24 04:16:24;;;;;;;1.03;1.03;;;7.10;96.50;;;;;;10429019;28;20209;-76
2024/02/24 04:21:26;;;;;;;1.00;1.00;;;7.00;96.40;;;;;;10439867;28;20225;-77
2024/02/24 04:26:30;;;;;;;0.67;0.67;;;6.90;96.50;;;;;;10444140;28;20259;-77
2024/02/24 04:31:32;;;;;;;0.40;0.40;;;6.90;96.50;;;;;;10450255;28;20772;-77
2024/02/24 04:36:39;;;;;;;0.60;0.60;;;7.00;96.50;;;;;;10443448;28;20205;-77
2024/02/24 04:41:43;;;;;;;0.87;0.87;;;6.90;96.70;;;;;;10437338;28;20216;-77
2024/02/24 04:46:45;;;;;;;1.00;1.00;;;6.90;96.70;;;;;;10427678;28;20205;-77
2024/02/24 04:51:48;;;;;;;0.80;0.80;;;6.90;96.70;;;;;;10432727;28;20222;-77
2024/02/24 04:56:51;;;;;;;0.77;0.77;;;7.00;96.90;;;;;;10441110;28;20284;-77
2024/02/24 05:01:54;;;;;;;0.90;0.90;;;7.00;96.90;;;;;;10449464;28;20221;-77
2024/02/24 05:06:56;;;;;;;0.80;0.80;;;7.10;96.80;;;;;;10441395;28;20260;-77
2024/02/24 05:12:00;;;;;;;0.70;0.70;;;7.10;96.90;;;;;;10449050;28;20237;-77
2024/02/24 05:17:02;;;;;;;0.90;0.90;;;7.20;96.90;;;;;;10425228;28;20589;-77
2024/02/24 05:22:05;;;;;;;0.90;0.90;;;7.20;96.90;;;;;;10417924;28;20214;-77
2024/02/24 05:27:08;;;;;;;0.83;0.83;;;7.20;96.90;;;;;;10447417;28;20246;-77
2024/02/24 05:32:12;;;;;;;0.83;0.83;;;7.30;97.00;;;;;;10448287;28;20232;-77
2024/02/24 05:37:15;;;;;;;0.87;0.87;;;7.30;96.80;;;;;;10424258;28;20197;-77
2024/02/24 05:42:19;;;;;;;0.70;0.70;;;7.30;96.60;;;;;;10437374;28;20217;-77
2024/02/24 05:47:21;;;;;;;0.87;0.87;;;7.30;96.70;;;;;;10445270;28;20670;-77
2024/02/24 05:52:24;;;;;;;1.00;1.00;;;7.30;96.90;;;;;;10446541;28;20232;-77
2024/02/24 05:57:28;;;;;;;0.90;0.90;;;7.30;96.90;;;;;;10414332;28;20225;-77
2024/02/24 06:02:30;;;;;;;0.80;0.80;;;7.30;96.60;;;;;;10412177;28;20214;-77
2024/02/24 06:07:33;;;;;;;0.90;0.90;;;7.20;96.70;;;;;;10442628;28;20624;-77
2024/02/24 06:12:37;;;;;;;0.80;0.80;;;7.20;96.90;;;;;;10414245;28;20225;-77
2024/02/24 06:17:39;;;;;;;0.93;0.93;;;7.20;96.80;;;;;;10440797;28;20232;-77
2024/02/24 06:22:41;;;;;;;0.77;0.77;;;7.20;96.90;;;;;;10444302;28;20209;-77
2024/02/24 06:27:45;;;;;;;0.93;0.93;;;7.20;97.00;;;;;;10417319;28;20192;-77
2024/02/24 06:32:47;;;;;;;1.00;1.00;;;7.20;97.10;;;;;;10414384;28;20583;-77
2024/02/24 06:37:50;;;;;;;0.63;0.63;;;7.20;97.30;;;;;;10446154;28;20202;-77
2024/02/24 06:42:53;;;;;;;0.80;0.80;;;7.10;97.40;;;;;;10436255;28;20222;-77
2024/02/24 06:47:56;;;;;;;0.90;0.90;;;7.20;97.60;;;;;;10444948;28;20255;-77
2024/02/24 06:52:58;;;;;;;0.80;0.80;;;7.20;97.20;;;;;;10419169;28;20629;-77
2024/02/24 06:58:02;;;;;;;0.70;0.70;;;7.20;97.10;;;;;;10443071;28;20620;-77
2024/02/24 07:03:05;;;;;;;1.10;1.10;;;7.20;97.30;;;;;;10448922;28;20220;-77
2024/02/24 07:08:07;;;;;;;1.00;1.00;;;7.20;97.40;;;;;;10429079;28;20239;-76
2024/02/24 07:13:11;;;;;;;0.70;0.70;;;7.30;97.30;;;;;;10422278;28;20642;-77
2024/02/24 07:18:13;;;;;;;0.70;0.70;;;7.30;97.40;;;;;;10439402;28;20202;-77
2024/02/24 07:23:15;;;;;;;0.90;0.90;;;7.40;97.40;;;;;;10447165;28;20682;-77
2024/02/24 07:28:19;;;;;;;0.60;0.60;;;7.40;97.50;;;;;;10430589;28;20266;-76
2024/02/24 07:33:22;;;;;;;1.07;1.07;;;7.40;97.50;;;;;;10422918;28;20280;-77
2024/02/24 07:38:24;;;;;;;0.83;0.83;;;7.50;97.70;;;;;;10437236;28;20206;-77
2024/02/24 07:43:28;;;;;;;0.90;0.90;;;7.50;97.90;;;;;;10425651;28;20237;-77
2024/02/24 07:48:30;;;;;;;0.70;0.70;;;7.60;97.60;;;;;;10434424;28;20625;-77
2024/02/24 07:53:32;;;;;;;0.70;0.70;;;7.60;96.90;;;;;;10442685;28;20291;-77
2024/02/24 07:58:36;;;;;;;0.80;0.80;;;7.70;97.00;;;;;;10433373;28;20197;-77
2024/02/24 08:03:38;;;;;;;0.80;0.80;;;7.70;96.90;;;;;;10422847;28;20754;-77
2024/02/24 08:08:41;;;;;;;0.60;0.60;;;7.80;96.50;;;;;;10432282;28;20699;-77
2024/02/24 08:13:44;;;;;;;0.50;0.50;;;7.90;96.10;;;;;;10438652;28;20706;-77
2024/02/24 08:18:48;;;;;;;0.50;0.50;;;7.90;95.70;;;;;;10432038;28;20255;-77
2024/02/24 08:23:50;;;;;;;0.60;0.60;;;7.90;95.60;;;;;;10423063;28;20223;-77
2024/02/24 08:28:54;;;;;;;0.60;0.60;;;7.90;95.10;;;;;;10428936;28;20198;-77
2024/02/24 08:33:56;;;;;;;0.40;0.40;;;7.90;95.10;;;;;;10440177;28;20246;-77
2024/02/24 08:38:59;;;;;;;0.40;0.40;;;7.80;95.20;;;;;;10436574;28;20190;-77
2024/02/24 08:44:03;;;;;;;0.30;0.30;;;7.70;95.70;;;;;;10424679;28;20218;-77
2024/02/24 08:49:05;;;;;;;0.30;0.30;;;7.70;95.70;;;;;;10425867;28;20198;-76
2024/02/24 08:54:08;;;;;;;0.50;0.50;;;7.80;95.80;;;;;;10437888;28;20225;-77
2024/02/24 08:59:11;;;;;;;0.30;0.30;;;7.90;95.50;;;;;;10427376;28;20667;-77
2024/02/24 09:04:14;;;;;;;0.37;0.37;;;8.10;95.10;;;;;;10436952;28;20213;-77
2024/02/24 09:09:16;;;;;;;0.50;0.50;;;8.20;95.40;;;;;;10435973;28;20228;-77
2024/02/24 09:14:20;;;;;;;0.30;0.30;;;8.40;94.80;;;;;;10432180;28;20271;-77
2024/02/24 09:19:23;;;;;;;0.50;0.50;;;8.60;94.30;;;;;;10412566;28;20243;-77
2024/02/24 09:24:26;;;;;;;0.40;0.40;;;8.70;94.20;;;;;;10438889;28;20234;-77
2024/02/24 09:29:30;;;;;;;0.50;0.50;;;8.90;93.90;;;;;;10403403;28;20831;-77
2024/02/24 09:34:32;;;;;;;0.50;0.50;;;9.10;93.70;;;;;;10385633;28;20719;-77
2024/02/24 09:39:35;;;;;;;0.50;0.50;;;9.40;93.60;;;;;;10400571;28;20217;-77
2024/02/24 09:44:40;;;;;;;0.60;0.60;;;9.50;93.20;;;;;;10409374;28;20221;-77
2024/02/24 09:49:44;;;;;;;0.40;0.40;;;9.70;93.80;;;;;;10411444;28;20198;-77
2024/02/24 09:54:47;;;;;;;0.30;0.30;;;9.80;93.60;;;;;;10401403;28;20221;-78
2024/02/24 09:59:51;;;;;;;0.40;0.40;;;10.00;92.60;;;;;;10408938;28;20202;-77
2024/02/24 10:04:54;;;;;;;0.40;0.40;;;10.20;91.80;;;;;;10408332;28;20252;-77
2024/02/24 10:09:57;;;;;;;0.30;0.30;;;10.20;90.90;;;;;;10417396;28;20217;-77
2024/02/24 10:15:00;;;;;;;0.40;0.40;;;10.20;90.90;;;;;;10434203;28;20237;-79
2024/02/24 10:20:03;;;;;;;0.53;0.53;;;10.10;91.30;;;;;;10425167;28;20210;-78
2024/02/24 10:25:07;;;;;;;0.40;0.40;;;10.00;88.60;;;;;;10437745;28;20694;-78
2024/02/24 10:30:11;;;;;;;0.50;0.50;;;10.00;90.10;;;;;;10408973;28;20661;-78
2024/02/24 10:35:14;;;;;;;0.50;0.50;;;10.00;90.10;;;;;;10400034;28;20221;-79
2024/02/24 10:40:17;;;;;;;0.50;0.50;;;10.10;89.70;;;;;;10413886;28;20256;-78
2024/02/24 10:45:21;;;;;;;0.50;0.50;;;10.10;87.40;;;;;;10404252;28;20222;-78
2024/02/24 10:50:24;;;;;;;0.50;0.50;;;10.20;86.00;;;;;;10430420;28;20913;-77
2024/02/24 10:55:28;;;;;;;0.53;0.53;;;10.10;86.20;;;;;;10432235;28;20643;-78
2024/02/24 11:00:35;;;;;;;0.40;0.40;;;10.20;85.90;;;;;;10415625;28;20726;-77
2024/02/24 11:05:37;;;;;;;0.50;0.50;;;10.20;87.80;;;;;;10439456;28;20201;-77
2024/02/24 11:10:41;;;;;;;0.53;0.53;;;10.20;86.40;;;;;;10433187;28;20194;-78
2024/02/24 11:15:45;;;;;;;0.40;0.40;;;10.30;85.70;;;;;;10415540;28;20218;-78
2024/02/24 11:20:54;;;;;;;0.50;0.50;;;10.40;85.30;;;;;;10418256;28;20206;-78
2024/02/24 11:26:28;;;;;;;0.50;0.50;;;10.70;84.60;;;;;;10425655;28;20276;-78
2024/02/24 11:31:34;;;;;;;0.60;0.60;;;10.90;82.80;;;;;;10420825;28;20225;-78
2024/02/24 11:36:39;;;;;;;0.60;0.60;;;10.90;82.10;;;;;;10432261;28;20198;-79
2024/02/24 11:41:41;;;;;;;0.60;0.60;;;11.10;80.50;;;;;;10423042;28;20218;-78
2024/02/24 11:46:47;;;;;;;0.50;0.50;;;11.00;81.30;;;;;;10435005;28;20194;-78
2024/02/24 11:51:50;;;;;;;0.60;0.60;;;11.00;81.80;;;;;;10417633;28;20280;-78
2024/02/24 11:56:52;;;;;;;0.50;0.50;;;11.00;82.60;;;;;;10438041;28;20220;-77
2024/02/24 12:01:56;;;;;;;0.50;0.50;;;11.10;83.10;;;;;;10445070;28;20229;-77
2024/02/24 12:07:01;;;;;;;0.50;0.50;;;11.10;81.40;;;;;;10407909;28;20213;-77
2024/02/24 12:12:07;;;;;;;0.30;0.30;;;11.10;80.70;;;;;;10426784;28;20637;-79
2024/02/24 12:17:12;;;;;;;0.40;0.40;;;11.00;80.90;;;;;;10435642;28;20201;-77
2024/02/24 12:22:14;;;;;;;0.30;0.30;;;11.00;80.90;;;;;;10416898;28;20228;-78
2024/02/24 12:27:17;;;;;;;0.40;0.40;;;11.00;80.70;;;;;;10434359;28;20228;-78
2024/02/24 12:32:20;;;;;;;0.40;0.40;;;11.00;78.40;;;;;;10439542;28;20225;-77
2024/02/24 12:37:23;;;;;;;0.50;0.50;;;11.00;80.50;;;;;;10428378;28;20209;-77
2024/02/24 12:42:26;;;;;;;0.40;0.40;;;11.00;80.10;;;;;;10422917;28;20268;-78
2024/02/24 12:47:29;;;;;;;0.40;0.40;;;11.10;81.60;;;;;;10410390;28;20198;-78
2024/02/24 12:52:33;;;;;;;0.40;0.40;;;11.30;81.70;;;;;;10424827;28;20237;-77
2024/02/24 12:57:35;;;;;;;0.40;0.40;;;11.30;78.90;;;;;;10419073;28;20251;-78
2024/02/24 13:02:39;;;;;;;0.40;0.40;;;11.40;78.90;;;;;;10422277;28;20268;-77
2024/02/24 13:07:42;;;;;;;0.40;0.40;;;11.50;78.10;;;;;;10428104;28;20204;-77
2024/02/24 13:12:44;;;;;;;0.40;0.40;;;11.70;77.20;;;;;;10426275;28;20225;-78
2024/02/24 13:17:48;;;;;;;0.40;0.40;;;11.70;76.50;;;;;;10431416;28;20210;-78
2024/02/24 13:22:50;;;;;;;0.30;0.30;;;11.60;77.80;;;;;;10432287;28;20694;-77
2024/02/24 13:27:52;;;;;;;0.40;0.40;;;11.50;78.20;;;;;;10429801;28;20268;-78
2024/02/24 13:32:56;;;;;;;0.30;0.30;;;11.60;75.80;;;;;;10428455;28;20287;-77
2024/02/24 13:37:58;;;;;;;0.40;0.40;;;11.40;74.90;;;;;;10429665;28;20220;-77
2024/02/24 13:43:01;;;;;;;0.43;0.43;;;11.30;74.80;;;;;;10413136;28;20272;-77
2024/02/24 13:48:05;;;;;;;0.10;0.10;;;11.30;76.60;;;;;;10425736;28;20682;-77
2024/02/24 13:53:08;;;;;;;0.30;0.30;;;11.30;76.70;;;;;;10427965;28;20217;-77
2024/02/24 13:58:10;;;;;;;0.40;0.40;;;11.40;78.40;;;;;;10422979;28;20555;-78
2024/02/24 14:03:14;;;;;;;0.30;0.30;;;11.40;78.80;;;;;;10432870;28;20255;-78
2024/02/24 14:08:16;;;;;;;0.30;0.30;;;11.40;77.90;;;;;;10423580;28;20197;-77
2024/02/24 14:13:19;;;;;;;0.40;0.40;;;11.40;77.40;;;;;;10440696;28;20744;-77
2024/02/24 14:18:23;;;;;;;0.50;0.50;;;11.50;76.00;;;;;;10436038;28;20193;-77
2024/02/24 14:23:26;;;;;;;0.40;0.40;;;11.50;76.70;;;;;;10434194;28;20435;-78
2024/02/24 14:28:28;;;;;;;0.30;0.30;;;11.50;76.60;;;;;;10440904;28;20627;-77
2024/02/24 14:33:32;;;;;;;0.50;0.50;;;11.50;75.70;;;;;;10434603;28;20715;-77
2024/02/24 14:38:34;;;;;;;0.50;0.50;;;11.50;75.80;;;;;;10440727;28;20237;-77
2024/02/24 14:43:36;;;;;;;0.40;0.40;;;11.40;74.70;;;;;;10434560;28;20213;-77
2024/02/24 14:48:41;;;;;;;0.50;0.50;;;11.40;76.40;;;;;;10440143;28;20198;-77
2024/02/24 14:53:44;;;;;;;0.40;0.40;;;11.30;77.40;;;;;;10436890;28;20715;-77
2024/02/24 14:58:46;;;;;;;0.50;0.50;;;11.30;75.20;;;;;;10436767;28;20194;-77
2024/02/24 15:03:50;;;;;;;0.50;0.50;;;11.20;75.30;;;;;;10444102;28;20282;-77
2024/02/24 15:08:52;;;;;;;0.50;0.50;;;11.20;76.80;;;;;;10443167;28;20202;-77
2024/02/24 15:13:55;;;;;;;0.40;0.40;;;11.20;77.00;;;;;;10443713;28;20221;-76
2024/02/24 15:18:59;;;;;;;0.30;0.30;;;11.20;75.10;;;;;;10426608;28;20210;-77
2024/02/24 15:24:01;;;;;;;0.50;0.50;;;11.20;73.80;;;;;;10437494;28;20222;-77
2024/02/24 15:29:05;;;;;;;0.60;0.60;;;11.10;73.40;;;;;;10451329;28;20205;-77
2024/02/24 15:34:09;;;;;;;0.50;0.50;;;11.10;73.80;;;;;;10447511;28;20221;-77
2024/02/24 15:39:11;;;;;;;0.50;0.50;;;11.10;74.30;;;;;;10439961;28;20201;-77
2024/02/24 15:44:14;;;;;;;0.50;0.50;;;11.10;73.00;;;;;;10436978;28;20225;-77
2024/02/24 15:49:18;;;;;;;0.50;0.50;;;11.10;75.10;;;;;;10426713;28;20643;-77
2024/02/24 15:54:20;;;;;;;0.40;0.40;;;11.10;75.80;;;;;;10445400;28;20218;-77
2024/02/24 15:59:25;;;;;;;0.40;0.40;;;11.10;74.60;;;;;;10452124;28;20658;-77
2024/02/24 16:04:28;;;;;;;0.50;0.50;;;11.00;73.90;;;;;;10445153;28;20276;-77
2024/02/24 16:09:32;;;;;;;0.40;0.40;;;11.00;72.30;;;;;;10451033;28;20205;-77
2024/02/24 16:14:34;;;;;;;0.40;0.40;;;10.90;74.00;;;;;;10444234;28;20678;-76
2024/02/24 16:19:40;;;;;;;0.50;0.50;;;10.70;75.50;;;;;;10450786;28;20194;-77
2024/02/24 16:24:42;;;;;;;0.43;0.43;;;10.60;75.40;;;;;;10451330;28;20263;-77
2024/02/24 16:29:45;;;;;;;0.20;0.20;;;10.40;76.50;;;;;;10439442;28;20205;-77
2024/02/24 16:34:48;;;;;;;0.50;0.50;;;10.30;78.70;;;;;;10443269;28;20229;-77
2024/02/24 16:39:51;;;;;;;0.50;0.50;;;10.20;82.40;;;;;;10441602;28;20574;-77
2024/02/24 16:44:53;;;;;;;0.50;0.50;;;10.00;85.00;;;;;;10442575;28;20252;-77
2024/02/24 16:49:58;;;;;;;0.40;0.40;;;9.90;87.60;;;;;;10438775;28;20209;-78
2024/02/24 16:55:00;;;;;;;0.40;0.40;;;9.70;88.50;;;;;;10442911;28;20225;-77
2024/02/24 17:00:03;;;;;;;0.50;0.50;;;9.50;89.40;;;;;;10436654;28;20197;-77
2024/02/24 17:05:10;;;;;;;0.50;0.50;;;9.30;90.10;;;;;;10445271;28;20221;-77
2024/02/24 17:10:14;;;;;;;0.30;0.30;;;9.20;90.60;;;;;;10436935;28;20202;-77
2024/02/24 17:15:16;;;;;;;0.50;0.50;;;9.10;90.90;;;;;;10433915;28;20240;-77
2024/02/24 17:20:21;;;;;;;0.40;0.40;;;9.00;91.20;;;;;;10434276;28;20243;-76
2024/02/24 17:25:23;;;;;;;0.40;0.40;;;9.00;91.50;;;;;;10449088;28;20274;-76
2024/02/24 17:30:25;;;;;;;0.30;0.30;;;8.90;91.60;;;;;;10433752;28;20210;-76
2024/02/24 17:35:30;;;;;;;0.50;0.50;;;8.80;91.80;;;;;;10441601;28;20229;-78
2024/02/24 17:40:33;;;;;;;0.60;0.60;;;8.80;92.10;;;;;;10435190;28;20255;-77
2024/02/24 17:45:36;;;;;;;0.50;0.50;;;8.70;92.30;;;;;;10406465;28;20238;-77
2024/02/24 17:50:39;;;;;;;0.60;0.60;;;8.60;92.50;;;;;;10420793;28;20200;-77
2024/02/24 17:55:42;;;;;;;0.40;0.40;;;8.50;92.80;;;;;;10431531;28;20711;-77
2024/02/24 18:00:47;;;;;;;0.60;0.60;;;8.50;93.10;;;;;;10428739;28;20209;-78
2024/02/24 18:05:51;;;;;;;0.40;0.40;;;8.50;93.40;;;;;;10418775;28;20762;-77
2024/02/24 18:10:54;;;;;;;0.70;0.70;;;8.50;93.50;;;;;;10431230;28;20292;-77
2024/02/24 18:15:56;;;;;;;0.60;0.60;;;8.50;93.40;;;;;;10440337;28;20248;-77
2024/02/24 18:21:00;;;;;;;0.60;0.60;;;8.50;93.70;;;;;;10432227;28;20694;-77
2024/02/24 18:26:02;;;;;;;0.50;0.50;;;8.50;93.70;;;;;;10443875;28;20601;-77
2024/02/24 18:31:05;;;;;;;0.60;0.60;;;8.50;93.90;;;;;;10441921;28;20197;-77
2024/02/24 18:36:09;;;;;;;0.63;0.63;;;8.40;94.10;;;;;;10453223;28;20209;-77
2024/02/24 18:41:11;;;;;;;0.60;0.60;;;8.40;94.10;;;;;;10444425;28;20193;-76
2024/02/24 18:46:14;;;;;;;0.60;0.60;;;8.30;94.10;;;;;;10453656;28;20189;-77
2024/02/24 18:51:18;;;;;;;0.60;0.60;;;8.20;94.30;;;;;;10430501;28;20655;-77
2024/02/24 18:56:20;;;;;;;0.60;0.60;;;8.10;94.50;;;;;;10429485;28;20225;-77
2024/02/24 19:01:23;;;;;;;0.70;0.70;;;8.00;94.60;;;;;;10436413;28;20225;-77
2024/02/24 19:06:27;;;;;;;0.50;0.50;;;7.90;94.80;;;;;;10441050;28;20667;-76
2024/02/24 19:11:30;;;;;;;0.60;0.60;;;7.90;95.00;;;;;;10444732;28;20217;-76
2024/02/24 19:16:34;;;;;;;0.50;0.50;;;7.90;95.10;;;;;;10444814;28;20229;-77
2024/02/24 19:21:37;;;;;;;0.60;0.60;;;7.90;95.10;;;;;;10435657;28;20272;-77
2024/02/24 19:26:40;;;;;;;0.60;0.60;;;7.90;95.20;;;;;;10449610;28;20206;-77
2024/02/24 19:31:43;;;;;;;0.60;0.60;;;7.90;95.10;;;;;;10438468;28;20217;-77
2024/02/24 19:36:46;;;;;;;0.60;0.60;;;7.90;95.00;;;;;;10429126;28;20776;-77
2024/02/24 19:41:49;;;;;;;0.40;0.40;;;7.90;95.20;;;;;;10437302;28;20217;-77
2024/02/24 19:46:51;;;;;;;0.70;0.70;;;7.90;95.30;;;;;;10440946;28;20659;-77
2024/02/24 19:51:55;;;;;;;0.60;0.60;;;7.90;95.40;;;;;;10438868;28;20236;-77
2024/02/24 19:56:57;;;;;;;0.50;0.50;;;7.90;95.10;;;;;;10443949;28;20645;-78
2024/02/24 20:01:59;;;;;;;0.50;0.50;;;7.90;95.10;;;;;;10426000;28;20243;-78
2024/02/24 20:07:03;;;;;;;0.70;0.70;;;7.80;95.10;;;;;;10438294;28;20193;-77
2024/02/24 20:12:08;;;;;;;0.70;0.70;;;7.80;95.20;;;;;;10423820;28;20233;-77
2024/02/24 20:17:13;;;;;;;0.73;0.73;;;7.70;95.30;;;;;;10416580;28;20217;-78
2024/02/24 20:22:17;;;;;;;0.50;0.50;;;7.60;95.30;;;;;;10422936;28;20708;-77
2024/02/24 20:27:19;;;;;;;0.70;0.70;;;7.50;95.40;;;;;;10434781;28;20189;-77
2024/02/24 20:32:21;;;;;;;0.50;0.50;;;7.40;95.30;;;;;;10440841;28;20622;-79
2024/02/24 20:37:27;;;;;;;0.40;0.40;;;7.40;95.50;;;;;;10435276;28;20739;-77
2024/02/24 20:42:29;;;;;;;0.47;0.47;;;7.30;95.60;;;;;;10430753;28;20220;-77
2024/02/24 20:47:32;;;;;;;0.70;0.70;;;7.30;95.60;;;;;;10441248;28;20251;-77
2024/02/24 20:52:36;;;;;;;0.60;0.60;;;7.30;95.70;;;;;;10441085;28;20225;-77
2024/02/24 20:57:38;;;;;;;0.50;0.50;;;7.20;95.70;;;;;;10443856;28;20645;-77
2024/02/24 21:02:40;;;;;;;0.60;0.60;;;7.10;95.70;;;;;;10430669;28;20209;-76
2024/02/24 21:07:44;;;;;;;0.60;0.60;;;7.00;96.10;;;;;;10443656;28;20182;-76
2024/02/24 21:12:46;;;;;;;0.50;0.50;;;7.00;96.00;;;;;;10439217;28;20644;-77
2024/02/24 21:17:49;;;;;;;0.50;0.50;;;7.00;96.20;;;;;;10443172;28;20228;-77
2024/02/24 21:22:52;;;;;;;0.60;0.60;;;7.00;96.20;;;;;;10443353;28;20212;-77
2024/02/24 21:27:55;;;;;;;0.40;0.40;;;7.00;96.20;;;;;;10437338;28;20194;-77
2024/02/24 21:32:58;;;;;;;0.47;0.47;;;6.90;96.40;;;;;;10444206;28;20213;-77
2024/02/24 21:38:02;;;;;;;0.30;0.30;;;6.90;96.70;;;;;;10442122;28;20224;-78
2024/02/24 21:43:05;;;;;;;0.40;0.40;;;6.90;96.40;;;;;;10444289;28;20217;-77
2024/02/24 21:48:08;;;;;;;0.50;0.50;;;6.90;96.00;;;;;;10441783;28;20193;-77
2024/02/24 21:53:12;;;;;;;0.43;0.43;;;6.80;96.20;;;;;;10420148;28;20625;-77
2024/02/24 21:58:14;;;;;;;0.60;0.60;;;6.80;96.40;;;;;;10441730;28;20643;-77
2024/02/24 22:03:16;;;;;;;0.23;0.23;;;6.70;96.60;;;;;;10445501;28;20228;-76
2024/02/24 22:08:20;;;;;;;0.40;0.40;;;6.70;96.50;;;;;;10423442;28;20185;-77
2024/02/24 22:13:23;;;;;;;0.60;0.60;;;6.70;96.60;;;;;;10422097;28;20628;-76
2024/02/24 22:18:25;;;;;;;0.30;0.30;;;6.70;96.50;;;;;;10429514;28;20222;-77
2024/02/24 22:23:29;;;;;;;0.40;0.40;;;6.70;96.60;;;;;;10442154;28;20275;-77
2024/02/24 22:28:31;;;;;;;0.47;0.47;;;6.70;97.00;;;;;;10431146;28;20674;-77
2024/02/24 22:33:34;;;;;;;0.40;0.40;;;6.70;96.80;;;;;;10439607;28;20632;-77
2024/02/24 22:38:37;;;;;;;0.40;0.40;;;6.70;96.90;;;;;;10439503;28;20690;-77
2024/02/24 22:43:40;;;;;;;0.40;0.40;;;6.70;97.00;;;;;;10436430;28;20213;-77
2024/02/24 22:48:42;;;;;;;0.40;0.40;;;6.70;96.90;;;;;;10441578;28;20247;-77
2024/02/24 22:53:46;;;;;;;0.30;0.30;;;6.60;96.50;;;;;;10438507;28;20233;-77
2024/02/24 22:58:48;;;;;;;0.50;0.50;;;6.50;96.50;;;;;;10441350;28;20271;-77
2024/02/24 23:03:51;;;;;;;0.40;0.40;;;6.50;96.30;;;;;;10433962;28;20221;-77
2024/02/24 23:08:55;;;;;;;0.50;0.50;;;6.40;96.50;;;;;;10439874;28;20201;-77
2024/02/24 23:13:57;;;;;;;0.40;0.40;;;6.40;96.80;;;;;;10435018;28;20290;-77
2024/02/24 23:19:00;;;;;;;0.50;0.50;;;6.40;96.70;;;;;;10447503;28;20217;-77
2024/02/24 23:24:04;;;;;;;0.50;0.50;;;6.50;96.60;;;;;;10440520;28;20237;-77
2024/02/24 23:29:07;;;;;;;0.50;0.50;;;6.50;96.50;;;;;;10447040;28;20525;-77
2024/02/24 23:34:09;;;;;;;0.47;0.47;;;6.50;96.50;;;;;;10438674;28;20213;-77
2024/02/24 23:39:13;;;;;;;0.40;0.40;;;6.40;96.50;;;;;;10429275;28;20274;-77
2024/02/24 23:44:15;;;;;;;0.50;0.50;;;6.40;96.40;;;;;;10437642;28;20224;-77
2024/02/24 23:49:18;;;;;;;0.40;0.40;;;6.30;96.20;;;;;;10418129;28;20193;-77
2024/02/24 23:54:21;;;;;;;0.67;0.67;;;6.20;96.20;;;;;;10419002;28;20230;-77
2024/02/24 23:59:24;;;;;;;0.40;0.40;;;6.20;96.40;;;;;;10432518;28;20217;-77
